Time;durP1;ratioP1;P1;durP2;ratioP2;P2;SDS_P1;SDS_P2;PMS_P1;PMS_P2;Temp;Humidity;BMP_temperature;BMP_pressure;BME280_temperature;BME280_humidity;BME280_pressure;Samples;Min_cycle;Max_cycle;Signal;HPM_P1;HPM_P2
2022/10/21 00:01:18;;;;;;;1.80;0.60;;;11.00;99.90;;;;;;4826222;29;20387;-88
2022/10/21 00:03:44;;;;;;;3.30;0.80;;;11.00;99.90;;;;;;4826560;29;20098;-88
2022/10/21 00:06:10;;;;;;;2.05;0.75;;;11.00;99.90;;;;;;4826400;29;20504;-88
2022/10/21 00:08:54;;;;;;;1.70;0.90;;;11.30;99.90;;;;;;4826645;29;20053;-88
2022/10/21 00:11:22;;;;;;;3.80;0.90;;;11.00;99.90;;;;;;4826305;29;20060;-88
2022/10/21 00:13:47;;;;;;;0.95;0.50;;;11.00;99.90;;;;;;4826537;29;20390;-88
2022/10/21 00:16:20;;;;;;;0.53;0.53;;;11.00;99.90;;;;;;4826310;29;20042;-88
2022/10/21 00:18:51;;;;;;;0.50;0.50;;;11.00;99.90;;;;;;4826562;29;20090;-88
2022/10/21 00:21:23;;;;;;;1.73;0.50;;;11.00;99.90;;;;;;4841418;29;20045;-88
2022/10/21 00:23:49;;;;;;;2.25;0.80;;;10.90;99.90;;;;;;4826254;29;20042;-88
2022/10/21 00:26:16;;;;;;;0.90;0.80;;;10.90;99.90;;;;;;4826124;29;20053;-88
2022/10/21 00:28:44;;;;;;;0.50;0.50;;;10.90;99.90;;;;;;4826384;29;20615;-88
2022/10/21 00:31:17;;;;;;;1.77;0.85;;;11.00;99.90;;;;;;4826026;29;20049;-89
2022/10/21 00:33:45;;;;;;;1.63;0.90;;;10.80;99.90;;;;;;4811221;29;20105;-88
2022/10/21 00:36:17;;;;;;;1.75;0.70;;;10.90;99.90;;;;;;4826003;29;20049;-89
2022/10/21 00:38:45;;;;;;;1.45;1.08;;;10.90;99.90;;;;;;4811853;29;20057;-88
2022/10/21 00:41:12;;;;;;;1.30;0.93;;;10.90;99.90;;;;;;4825931;29;20050;-88
2022/10/21 00:44:05;;;;;;;1.85;1.38;;;10.90;99.90;;;;;;4826041;29;20038;-88
2022/10/21 00:46:42;;;;;;;0.80;0.55;;;10.90;99.90;;;;;;4826016;29;20060;-88
2022/10/21 00:49:17;;;;;;;;;;;10.90;99.90;;;;;;4826666;29;20053;-88
2022/10/21 00:51:46;;;;;;;0.82;0.50;;;10.90;99.90;;;;;;4831897;29;19920;-88
2022/10/21 00:54:16;;;;;;;2.35;1.08;;;10.90;99.90;;;;;;4847882;29;20118;-88
2022/10/21 00:56:47;;;;;;;2.05;1.05;;;10.90;99.90;;;;;;4832543;29;20477;-88
2022/10/21 00:59:14;;;;;;;1.95;0.85;;;10.90;99.90;;;;;;4847597;29;20041;-89
2022/10/21 01:01:42;;;;;;;1.25;0.77;;;10.90;99.90;;;;;;4832755;29;20064;-88
2022/10/21 01:04:08;;;;;;;1.45;0.73;;;10.90;99.90;;;;;;4832411;29;20050;-88
2022/10/21 01:06:38;;;;;;;2.07;0.80;;;10.90;99.90;;;;;;4832273;29;20437;-88
2022/10/21 01:09:07;;;;;;;0.35;0.30;;;10.90;99.90;;;;;;4832395;29;20350;-90
2022/10/21 01:11:43;;;;;;;1.13;0.82;;;10.80;99.90;;;;;;4832122;29;20060;-88
2022/10/21 01:14:47;;;;;;;2.17;1.30;;;10.80;99.90;;;;;;4832447;29;20045;-88
2022/10/21 01:17:33;;;;;;;0.95;0.82;;;10.80;99.90;;;;;;4821901;29;20378;-88
2022/10/21 01:20:19;;;;;;;1.75;1.02;;;9.70;99.90;;;;;;4832396;29;20053;-88
2022/10/21 01:23:04;;;;;;;1.45;0.60;;;10.70;99.90;;;;;;4832124;29;20088;-88
2022/10/21 01:25:35;;;;;;;2.17;1.30;;;10.70;99.90;;;;;;4831880;29;20467;-87
2022/10/21 01:28:48;;;;;;;1.13;0.60;;;10.70;99.90;;;;;;4832299;29;20046;-88
2022/10/21 01:31:28;;;;;;;1.25;0.43;;;10.70;99.90;;;;;;4831961;29;20049;-87
2022/10/21 01:34:13;;;;;;;0.98;0.88;;;10.70;99.90;;;;;;4832200;29;20088;-88
2022/10/21 01:36:41;;;;;;;1.05;0.95;;;10.70;99.90;;;;;;4831765;29;20042;-88
2022/10/21 01:39:21;;;;;;;1.63;0.95;;;10.70;99.90;;;;;;4847058;29;20049;-88
2022/10/21 01:42:27;;;;;;;2.08;1.60;;;10.70;99.90;;;;;;4847329;29;20056;-88
2022/10/21 01:45:13;;;;;;;1.58;1.02;;;10.70;99.90;;;;;;4806815;29;20050;-88
2022/10/21 01:47:52;;;;;;;0.68;0.60;;;10.70;99.90;;;;;;4776401;29;20198;-88
2022/10/21 01:50:34;;;;;;;1.88;1.00;;;10.70;99.90;;;;;;4830867;29;20093;-88
2022/10/21 01:53:10;;;;;;;0.80;0.77;;;10.70;99.90;;;;;;4831048;29;20061;-88
2022/10/21 01:55:40;;;;;;;0.90;0.50;;;10.70;99.90;;;;;;4846801;29;20057;-88
2022/10/21 01:58:23;;;;;;;1.75;0.75;;;10.70;99.90;;;;;;4831652;29;20045;-88
2022/10/21 02:00:53;;;;;;;1.55;0.65;;;10.70;99.90;;;;;;4846399;29;20060;-88
2022/10/21 02:03:34;;;;;;;0.95;0.68;;;11.00;99.90;;;;;;4831118;29;20128;-91
2022/10/21 02:06:06;;;;;;;1.25;1.10;;;10.70;99.90;;;;;;4831733;29;20441;-88
2022/10/21 02:08:32;;;;;;;0.88;0.63;;;10.80;99.90;;;;;;4846077;29;20101;-88
2022/10/21 02:11:01;;;;;;;1.80;1.07;;;10.70;99.90;;;;;;4831513;29;20046;-88
2022/10/21 02:14:02;;;;;;;1.23;0.82;;;10.80;99.90;;;;;;4831111;29;20800;-88
2022/10/21 02:16:32;;;;;;;1.10;0.73;;;9.70;99.90;;;;;;4842005;29;20090;-88
2022/10/21 02:19:07;;;;;;;1.95;0.63;;;10.30;99.90;;;;;;4846649;29;20049;-88
2022/10/21 02:21:35;;;;;;;1.08;0.98;;;10.80;99.90;;;;;;4831044;29;20049;-88
2022/10/21 02:24:15;;;;;;;1.52;0.77;;;10.80;99.90;;;;;;4831108;29;20038;-88
2022/10/21 02:26:41;;;;;;;1.58;1.17;;;10.90;99.90;;;;;;4831070;29;20053;-88
2022/10/21 02:29:12;;;;;;;0.40;0.40;;;10.90;99.90;;;;;;4831232;29;20038;-87
2022/10/21 02:31:49;;;;;;;0.47;0.47;;;10.90;99.90;;;;;;4830833;29;20290;-88
2022/10/21 02:34:30;;;;;;;;;;;10.90;99.90;;;;;;4831525;29;20046;-88
2022/10/21 02:37:15;;;;;;;1.25;0.70;;;11.00;99.90;;;;;;4831425;29;20279;-88
2022/10/21 02:39:51;;;;;;;1.52;0.70;;;11.00;99.90;;;;;;4830761;29;20049;-88
2022/10/21 02:42:27;;;;;;;0.50;0.50;;;11.10;99.90;;;;;;4845845;29;20113;-88
2022/10/21 02:44:53;;;;;;;1.48;0.90;;;11.00;99.90;;;;;;4830976;29;20056;-88
2022/10/21 02:47:19;;;;;;;1.02;0.77;;;11.10;99.90;;;;;;4846125;29;20082;-86
2022/10/21 02:49:45;;;;;;;1.83;0.47;;;11.10;99.90;;;;;;4830623;29;20111;-87
2022/10/21 02:52:11;;;;;;;0.85;0.75;;;11.10;99.90;;;;;;4830506;29;20125;-87
2022/10/21 02:54:37;;;;;;;1.75;0.70;;;11.10;99.90;;;;;;4830485;29;20144;-89
2022/10/21 02:57:06;;;;;;;0.93;0.57;;;11.20;99.90;;;;;;4830707;29;20137;-89
2022/10/21 02:59:34;;;;;;;1.40;0.63;;;11.20;99.90;;;;;;4830038;29;20070;-90
2022/10/21 03:02:05;;;;;;;1.05;0.63;;;10.70;99.90;;;;;;4830559;29;20504;-89
2022/10/21 03:04:31;;;;;;;1.17;0.80;;;11.20;99.90;;;;;;4844886;29;20116;-88
2022/10/21 03:07:05;;;;;;;2.20;0.97;;;10.80;99.90;;;;;;4830565;29;20091;-88
2022/10/21 03:09:30;;;;;;;0.65;0.50;;;12.30;99.90;;;;;;4830288;29;20050;-89
2022/10/21 03:11:56;;;;;;;1.10;0.57;;;11.30;99.90;;;;;;4830351;29;20121;-88
2022/10/21 03:14:25;;;;;;;2.85;0.85;;;11.40;99.90;;;;;;4830098;29;20072;-87
2022/10/21 03:16:56;;;;;;;1.55;0.50;;;11.30;99.90;;;;;;4830750;29;20068;-87
2022/10/21 03:19:22;;;;;;;0.95;0.68;;;11.40;99.90;;;;;;4845681;29;20544;-86
2022/10/21 03:21:47;;;;;;;1.07;0.63;;;11.40;99.90;;;;;;4814663;29;20278;-87
2022/10/21 03:24:13;;;;;;;1.17;0.50;;;11.40;99.90;;;;;;4829832;29;20137;-86
2022/10/21 03:26:39;;;;;;;1.03;0.50;;;11.30;99.90;;;;;;4829938;29;20052;-86
2022/10/21 03:29:05;;;;;;;3.20;0.77;;;11.40;99.90;;;;;;4845451;29;20496;-85
2022/10/21 03:31:32;;;;;;;0.63;0.33;;;11.40;99.90;;;;;;4829699;29;20076;-86
2022/10/21 03:33:58;;;;;;;1.33;0.85;;;11.40;99.90;;;;;;4845278;29;20053;-85
2022/10/21 03:36:24;;;;;;;2.33;0.50;;;11.40;99.90;;;;;;4830203;29;20048;-85
2022/10/21 03:38:49;;;;;;;0.93;0.50;;;11.40;99.90;;;;;;4829938;29;20426;-85
2022/10/21 03:41:15;;;;;;;0.60;0.60;;;11.40;99.90;;;;;;4829834;29;20072;-85
2022/10/21 03:43:44;;;;;;;0.60;0.60;;;11.40;99.90;;;;;;4844655;29;20037;-85
2022/10/21 03:46:12;;;;;;;0.38;0.30;;;11.40;99.90;;;;;;4815067;29;20133;-85
2022/10/21 03:48:40;;;;;;;0.50;0.38;;;11.50;99.90;;;;;;4830074;29;20045;-85
2022/10/21 03:51:06;;;;;;;0.30;0.30;;;10.80;99.90;;;;;;4844812;29;20044;-85
2022/10/21 03:53:32;;;;;;;1.67;0.87;;;11.50;99.90;;;;;;4844828;29;20422;-92
2022/10/21 03:55:57;;;;;;;0.40;0.30;;;11.50;99.90;;;;;;4829874;29;20053;-85
2022/10/21 03:58:24;;;;;;;0.30;0.30;;;11.60;99.90;;;;;;4829860;29;20045;-85
2022/10/21 04:00:50;;;;;;;;;;;11.50;99.90;;;;;;4814980;29;20057;-85
2022/10/21 04:03:16;;;;;;;0.22;0.22;;;11.40;99.90;;;;;;4844808;29;20003;-85
2022/10/21 04:05:42;;;;;;;1.23;0.47;;;11.40;99.90;;;;;;4799276;29;20556;-85
2022/10/21 04:08:07;;;;;;;0.77;0.60;;;11.40;99.90;;;;;;4799422;29;20077;-86
2022/10/21 04:10:33;;;;;;;1.73;0.67;;;11.40;99.90;;;;;;4814246;29;20045;-85
2022/10/21 04:12:58;;;;;;;1.37;0.40;;;11.40;99.90;;;;;;4814206;29;20056;-85
2022/10/21 04:15:24;;;;;;;0.37;0.37;;;11.40;99.90;;;;;;4814403;29;20049;-85
2022/10/21 04:17:50;;;;;;;1.33;0.70;;;11.50;99.90;;;;;;4829252;29;20070;-86
2022/10/21 04:20:15;;;;;;;0.27;0.27;;;11.50;99.90;;;;;;4844781;29;20185;-86
2022/10/21 04:22:41;;;;;;;1.77;0.87;;;11.50;99.90;;;;;;4829240;29;20388;-86
2022/10/21 04:25:07;;;;;;;1.17;0.63;;;11.50;99.90;;;;;;4829355;29;20128;-86
2022/10/21 04:27:33;;;;;;;1.60;0.57;;;11.40;99.90;;;;;;4829479;29;20214;-86
2022/10/21 04:29:58;;;;;;;1.60;0.40;;;11.50;99.90;;;;;;4798876;29;20041;-86
2022/10/21 04:32:24;;;;;;;1.07;0.70;;;11.50;99.90;;;;;;4844243;29;20052;-86
2022/10/21 04:34:49;;;;;;;1.50;0.60;;;11.50;99.90;;;;;;4813901;29;20056;-86
2022/10/21 04:37:15;;;;;;;0.93;0.57;;;11.50;99.90;;;;;;4829310;29;20148;-86
2022/10/21 04:39:41;;;;;;;0.37;0.37;;;11.40;99.90;;;;;;4829019;29;20501;-86
2022/10/21 04:42:07;;;;;;;1.57;0.70;;;11.40;99.90;;;;;;4829386;29;20490;-86
2022/10/21 04:44:32;;;;;;;0.30;0.30;;;11.40;99.90;;;;;;4813944;29;20045;-86
2022/10/21 04:46:58;;;;;;;1.10;0.47;;;11.40;99.90;;;;;;4813754;29;20044;-86
2022/10/21 04:49:24;;;;;;;0.57;0.20;;;11.40;99.90;;;;;;4798911;29;20049;-86
2022/10/21 04:51:49;;;;;;;0.40;0.30;;;11.50;99.90;;;;;;4828649;29;20140;-86
2022/10/21 04:54:15;;;;;;;1.50;0.40;;;11.50;99.90;;;;;;4829352;29;20049;-86
2022/10/21 04:56:41;;;;;;;0.53;0.40;;;11.40;99.90;;;;;;4813722;29;20038;-86
2022/10/21 04:59:07;;;;;;;1.67;0.40;;;11.50;99.90;;;;;;4829114;29;20084;-86
2022/10/21 05:01:33;;;;;;;0.53;0.40;;;11.40;99.90;;;;;;4828800;29;20091;-86
2022/10/21 05:03:58;;;;;;;0.67;0.47;;;11.50;99.90;;;;;;4828567;29;20097;-86
2022/10/21 05:06:24;;;;;;;0.83;0.50;;;11.50;99.90;;;;;;4829119;29;20046;-86
2022/10/21 05:08:50;;;;;;;0.60;0.43;;;11.50;99.90;;;;;;4813625;29;20060;-86
2022/10/21 05:11:15;;;;;;;0.43;0.30;;;11.50;99.90;;;;;;4814136;29;20049;-86
2022/10/21 05:13:41;;;;;;;0.93;0.70;;;11.50;99.90;;;;;;4844219;29;20400;-86
2022/10/21 05:16:07;;;;;;;1.58;1.00;;;11.50;99.90;;;;;;4828968;29;20041;-86
2022/10/21 05:18:33;;;;;;;0.73;0.20;;;11.50;99.90;;;;;;4828611;29;20087;-86
2022/10/21 05:20:59;;;;;;;0.50;0.50;;;11.50;99.90;;;;;;4828555;29;20128;-86
2022/10/21 05:23:25;;;;;;;0.90;0.75;;;11.50;99.90;;;;;;4813685;29;20193;-86
2022/10/21 05:25:51;;;;;;;1.42;0.35;;;11.50;99.90;;;;;;4813570;29;20053;-86
2022/10/21 05:28:18;;;;;;;0.75;0.40;;;11.40;99.90;;;;;;4828884;29;20049;-86
2022/10/21 05:30:44;;;;;;;1.05;0.50;;;11.50;99.90;;;;;;4844027;29;20434;-86
2022/10/21 05:33:10;;;;;;;0.90;0.57;;;11.40;99.90;;;;;;4813830;29;20041;-86
2022/10/21 05:35:36;;;;;;;0.45;0.25;;;11.40;99.90;;;;;;4828878;29;20053;-86
2022/10/21 05:38:03;;;;;;;0.57;0.50;;;11.40;99.90;;;;;;4816843;29;20551;-86
2022/10/21 05:40:29;;;;;;;0.57;0.30;;;11.40;99.90;;;;;;4847358;29;20053;-86
2022/10/21 05:42:54;;;;;;;1.02;0.90;;;11.40;99.90;;;;;;4831624;29;20499;-86
2022/10/21 05:45:20;;;;;;;0.93;0.50;;;11.30;99.90;;;;;;4816595;29;20049;-86
2022/10/21 05:47:46;;;;;;;0.73;0.30;;;11.30;99.90;;;;;;4847114;29;20049;-86
2022/10/21 05:50:12;;;;;;;1.50;0.70;;;11.20;99.90;;;;;;4831640;29;20373;-86
2022/10/21 05:52:38;;;;;;;0.98;0.20;;;11.20;99.90;;;;;;4831445;29;20058;-86
2022/10/21 05:55:05;;;;;;;1.95;0.85;;;11.20;99.90;;;;;;4831476;29;20059;-86
2022/10/21 05:57:33;;;;;;;0.82;0.68;;;11.10;99.90;;;;;;4831644;29;20085;-86
2022/10/21 05:59:58;;;;;;;0.85;0.85;;;11.10;99.90;;;;;;4831396;29;20056;-86
2022/10/21 06:02:24;;;;;;;0.40;0.40;;;11.00;99.90;;;;;;4846878;29;20137;-85
2022/10/21 06:04:50;;;;;;;1.47;0.53;;;11.00;99.90;;;;;;4831191;29;20049;-87
2022/10/21 06:07:15;;;;;;;1.80;0.47;;;11.00;99.90;;;;;;4816542;29;20540;-86
2022/10/21 06:09:41;;;;;;;0.90;0.50;;;10.90;99.90;;;;;;4801492;29;20389;-86
2022/10/21 06:12:07;;;;;;;1.37;0.80;;;10.90;99.90;;;;;;4816202;29;20053;-86
2022/10/21 06:14:35;;;;;;;1.50;1.30;;;10.90;99.90;;;;;;4831076;29;20081;-86
2022/10/21 06:17:01;;;;;;;0.50;0.50;;;10.90;99.90;;;;;;4831392;29;20136;-86
2022/10/21 06:19:27;;;;;;;;;;;10.80;99.90;;;;;;4831844;29;20045;-86
2022/10/21 06:21:53;;;;;;;1.17;0.50;;;10.80;99.90;;;;;;4831063;29;19920;-87
2022/10/21 06:24:19;;;;;;;2.53;0.70;;;10.80;99.90;;;;;;4816353;29;20541;-86
2022/10/21 06:26:45;;;;;;;1.23;1.00;;;10.80;99.90;;;;;;4816291;29;20060;-86
2022/10/21 06:29:11;;;;;;;1.20;0.50;;;10.80;99.90;;;;;;4830962;29;20136;-85
2022/10/21 06:31:36;;;;;;;0.30;0.30;;;10.70;99.90;;;;;;4816217;29;20120;-85
2022/10/21 06:34:02;;;;;;;1.47;1.03;;;10.70;99.90;;;;;;4846147;29;20045;-85
2022/10/21 06:36:29;;;;;;;0.23;0.20;;;10.70;99.90;;;;;;4830791;29;20540;-85
2022/10/21 06:38:54;;;;;;;;;;;10.70;99.90;;;;;;4816197;29;20041;-86
2022/10/21 06:41:20;;;;;;;0.90;0.60;;;10.60;99.90;;;;;;4831063;29;19972;-85
2022/10/21 06:43:46;;;;;;;1.03;0.47;;;10.60;99.90;;;;;;4815714;29;20089;-85
2022/10/21 06:46:13;;;;;;;1.93;0.87;;;10.60;99.90;;;;;;4830608;29;20046;-85
2022/10/21 06:48:39;;;;;;;0.40;0.40;;;10.60;99.90;;;;;;4816062;29;20112;-85
2022/10/21 06:51:23;;;;;;;0.88;0.40;;;10.60;99.90;;;;;;4830411;29;20037;-86
2022/10/21 06:53:56;;;;;;;1.13;0.65;;;10.70;99.90;;;;;;4845785;29;20104;-86
2022/10/21 06:56:22;;;;;;;1.15;0.88;;;10.70;99.90;;;;;;4845701;29;20050;-86
2022/10/21 06:58:49;;;;;;;0.77;0.77;;;10.70;99.90;;;;;;4830812;29;20055;-85
2022/10/21 07:01:24;;;;;;;0.73;0.57;;;10.80;99.90;;;;;;4815514;29;20088;-86
2022/10/21 07:03:50;;;;;;;1.58;0.60;;;10.90;99.90;;;;;;4845792;29;20078;-85
2022/10/21 07:06:16;;;;;;;0.38;0.38;;;11.30;99.90;;;;;;4830312;29;20045;-86
2022/10/21 07:08:45;;;;;;;0.93;0.43;;;11.60;99.90;;;;;;4845369;29;20442;-85
2022/10/21 07:11:12;;;;;;;0.98;0.57;;;12.00;99.90;;;;;;4844979;29;20384;-86
2022/10/21 07:13:38;;;;;;;0.85;0.32;;;12.30;99.90;;;;;;4830133;29;20048;-86
2022/10/21 07:16:06;;;;;;;1.80;0.30;;;12.50;99.90;;;;;;4844708;29;20045;-86
2022/10/21 07:18:33;;;;;;;1.17;0.43;;;12.70;99.90;;;;;;4845256;29;20045;-86
2022/10/21 07:21:03;;;;;;;;;;;12.90;99.90;;;;;;4830387;29;20053;-91
2022/10/21 07:23:28;;;;;;;1.13;0.45;;;13.10;99.90;;;;;;4814673;29;19985;-86
2022/10/21 07:25:54;;;;;;;1.13;0.67;;;13.20;99.90;;;;;;4814817;29;20087;-86
2022/10/21 07:28:20;;;;;;;0.77;0.47;;;13.20;99.90;;;;;;4814498;29;20049;-86
2022/10/21 07:30:47;;;;;;;0.43;0.40;;;13.30;99.90;;;;;;4829746;29;20053;-86
2022/10/21 07:33:15;;;;;;;1.65;0.65;;;13.10;99.90;;;;;;4844064;29;20109;-85
2022/10/21 07:35:41;;;;;;;0.60;0.40;;;12.90;99.90;;;;;;4844845;29;20049;-83
2022/10/21 07:38:07;;;;;;;0.70;0.33;;;12.70;99.90;;;;;;4814250;29;20232;-84
2022/10/21 07:40:39;;;;;;;0.60;0.60;;;12.60;99.90;;;;;;4844691;29;20053;-82
2022/10/21 07:43:05;;;;;;;0.77;0.50;;;12.50;99.90;;;;;;4829197;29;20048;-83
2022/10/21 07:45:31;;;;;;;1.65;0.95;;;12.40;99.90;;;;;;4814476;29;20053;-83
2022/10/21 07:47:57;;;;;;;0.70;0.70;;;12.40;99.90;;;;;;4814795;29;20064;-84
2022/10/21 07:50:22;;;;;;;1.03;0.97;;;12.30;99.90;;;;;;4829056;29;20065;-84
2022/10/21 07:52:48;;;;;;;1.60;0.60;;;12.30;99.90;;;;;;4829054;29;20417;-85
2022/10/21 07:55:16;;;;;;;0.70;0.47;;;12.30;99.90;;;;;;4860353;29;20624;-84
2022/10/21 07:57:42;;;;;;;0.68;0.47;;;12.40;99.90;;;;;;4844449;29;20516;-83
2022/10/21 08:00:09;;;;;;;1.17;0.75;;;12.50;99.90;;;;;;4828678;29;20060;-84
2022/10/21 08:02:35;;;;;;;0.80;0.38;;;12.60;99.90;;;;;;4843998;29;20061;-83
2022/10/21 08:05:01;;;;;;;0.88;0.38;;;12.70;99.90;;;;;;4860679;29;20045;-83
2022/10/21 08:07:27;;;;;;;1.03;0.63;;;12.70;99.90;;;;;;4843855;29;20430;-83
2022/10/21 08:09:52;;;;;;;0.57;0.47;;;12.80;99.90;;;;;;4843995;29;20057;-83
2022/10/21 08:12:18;;;;;;;0.30;0.30;;;12.90;99.90;;;;;;4813797;29;20049;-83
2022/10/21 08:14:44;;;;;;;0.53;0.37;;;13.00;99.90;;;;;;4844266;29;20042;-83
2022/10/21 08:17:09;;;;;;;0.40;0.33;;;13.10;99.90;;;;;;4813635;29;20080;-83
2022/10/21 08:19:35;;;;;;;1.70;0.80;;;13.20;99.90;;;;;;4828821;29;20413;-83
2022/10/21 08:22:00;;;;;;;0.80;0.40;;;13.30;99.90;;;;;;4829045;29;20090;-82
2022/10/21 08:24:27;;;;;;;1.27;0.40;;;13.40;99.90;;;;;;4828531;29;20071;-83
2022/10/21 08:26:53;;;;;;;0.40;0.40;;;13.40;99.90;;;;;;4860362;29;20056;-83
2022/10/21 08:29:19;;;;;;;1.75;0.40;;;13.50;99.90;;;;;;4860107;29;20061;-83
2022/10/21 08:31:45;;;;;;;1.33;0.50;;;13.60;99.90;;;;;;4843803;29;20053;-83
2022/10/21 08:34:10;;;;;;;2.10;0.90;;;13.60;99.90;;;;;;4828241;29;20096;-84
2022/10/21 08:36:37;;;;;;;1.40;0.53;;;13.60;99.90;;;;;;4813679;29;20045;-83
2022/10/21 08:39:03;;;;;;;0.30;0.30;;;13.70;99.90;;;;;;4844016;29;20085;-82
2022/10/21 08:41:29;;;;;;;0.40;0.40;;;13.70;99.90;;;;;;4829354;29;20489;-82
2022/10/21 08:43:57;;;;;;;1.77;0.93;;;13.80;99.90;;;;;;4843552;29;20060;-83
2022/10/21 08:46:28;;;;;;;1.30;0.60;;;13.80;99.90;;;;;;4843247;29;20053;-84
2022/10/21 08:49:29;;;;;;;0.32;0.30;;;13.80;99.90;;;;;;4843843;29;20054;-85
2022/10/21 08:52:04;;;;;;;1.30;0.75;;;13.90;99.90;;;;;;4825251;29;20049;-84
2022/10/21 08:54:55;;;;;;;0.88;0.73;;;14.00;99.90;;;;;;4843475;29;20117;-83
2022/10/21 08:57:21;;;;;;;0.47;0.40;;;14.00;99.90;;;;;;4829333;29;20060;-84
2022/10/21 08:59:47;;;;;;;0.70;0.30;;;14.10;99.90;;;;;;4843872;29;20038;-85
2022/10/21 09:02:47;;;;;;;0.47;0.15;;;14.20;99.90;;;;;;4828718;29;20504;-85
2022/10/21 09:05:25;;;;;;;1.10;0.40;;;14.20;99.90;;;;;;4843825;29;20050;-85
2022/10/21 09:08:01;;;;;;;0.73;0.40;;;14.30;99.90;;;;;;4843752;29;20076;-86
2022/10/21 09:10:57;;;;;;;0.38;0.20;;;14.30;99.90;;;;;;4828386;29;20060;-85
2022/10/21 09:13:58;;;;;;;0.63;0.60;;;14.30;99.90;;;;;;4831798;29;20505;-85
2022/10/21 09:16:30;;;;;;;0.93;0.30;;;14.20;99.90;;;;;;4800280;29;20065;-84
2022/10/21 09:19:39;;;;;;;1.60;0.85;;;14.20;99.90;;;;;;4847372;29;20307;-85
2022/10/21 09:22:38;;;;;;;0.45;0.38;;;14.20;99.90;;;;;;4831946;29;20049;-85
2022/10/21 09:25:07;;;;;;;0.35;0.32;;;14.30;99.90;;;;;;4831903;29;20049;-84
2022/10/21 09:27:33;;;;;;;0.75;0.30;;;14.40;99.90;;;;;;4846885;29;20113;-83
2022/10/21 09:30:01;;;;;;;0.57;0.38;;;14.50;99.90;;;;;;4816785;29;20085;-83
2022/10/21 09:32:34;;;;;;;0.52;0.52;;;14.50;99.90;;;;;;4831352;29;20060;-84
2022/10/21 09:35:12;;;;;;;0.45;0.45;;;14.60;99.90;;;;;;4831743;29;20408;-86
2022/10/21 09:37:47;;;;;;;0.43;0.43;;;14.60;99.90;;;;;;4846693;29;20049;-86
2022/10/21 09:40:25;;;;;;;0.88;0.47;;;14.70;99.90;;;;;;4846902;29;20065;-86
2022/10/21 09:42:55;;;;;;;0.88;0.60;;;14.70;99.90;;;;;;4831511;29;20548;-88
2022/10/21 09:45:38;;;;;;;1.00;0.70;;;14.80;99.90;;;;;;4831258;29;20053;-88
2022/10/21 09:48:19;;;;;;;0.60;0.30;;;14.90;99.90;;;;;;4831211;29;20053;-88
2022/10/21 09:50:57;;;;;;;2.05;0.40;;;15.00;99.90;;;;;;4831194;29;20493;-87
2022/10/21 09:53:25;;;;;;;0.63;0.30;;;15.10;99.90;;;;;;4830738;29;20089;-88
2022/10/21 09:55:57;;;;;;;0.80;0.50;;;15.20;99.90;;;;;;4831240;29;20500;-88
2022/10/21 09:58:30;;;;;;;0.40;0.40;;;15.30;99.90;;;;;;4830674;29;20050;-88
2022/10/21 10:00:57;;;;;;;1.95;1.17;;;15.40;99.90;;;;;;4831255;29;20087;-88
2022/10/21 10:03:33;;;;;;;0.50;0.30;;;15.50;99.90;;;;;;4816018;29;20060;-87
2022/10/21 10:05:59;;;;;;;0.50;0.20;;;15.60;99.90;;;;;;4846547;29;20085;-86
2022/10/21 10:08:28;;;;;;;0.65;0.50;;;15.70;99.90;;;;;;4830850;29;20438;-86
2022/10/21 10:11:20;;;;;;;1.38;0.60;;;15.70;99.90;;;;;;4831119;29;20061;-85
2022/10/21 10:13:51;;;;;;;1.38;0.45;;;15.70;99.90;;;;;;4828323;29;20524;-85
2022/10/21 10:16:29;;;;;;;2.92;0.60;;;15.60;99.90;;;;;;4830972;29;20121;-84
2022/10/21 10:19:16;;;;;;;1.15;0.90;;;15.50;99.90;;;;;;4831047;29;20057;-85
2022/10/21 10:21:46;;;;;;;0.85;0.50;;;15.50;99.90;;;;;;4830635;29;20120;-86
2022/10/21 10:24:18;;;;;;;1.65;1.05;;;15.50;99.90;;;;;;4845981;29;20058;-85
2022/10/21 10:26:45;;;;;;;1.42;0.70;;;15.40;99.90;;;;;;4830778;29;20188;-85
2022/10/21 10:29:14;;;;;;;0.95;0.20;;;15.40;99.90;;;;;;4845998;29;20524;-85
2022/10/21 10:31:48;;;;;;;1.15;0.60;;;15.40;99.90;;;;;;4830792;29;20534;-86
2022/10/21 10:34:21;;;;;;;0.65;0.60;;;15.40;99.90;;;;;;4831051;29;20053;-89
2022/10/21 10:36:48;;;;;;;1.10;0.65;;;15.50;99.90;;;;;;4846129;29;20081;-88
2022/10/21 10:39:29;;;;;;;1.35;0.90;;;15.40;99.90;;;;;;4845970;29;20087;-86
2022/10/21 10:41:58;;;;;;;0.95;0.68;;;15.50;99.90;;;;;;4831396;29;20097;-85
2022/10/21 10:44:38;;;;;;;0.70;0.60;;;15.40;99.90;;;;;;4830655;29;20050;-85
2022/10/21 10:47:10;;;;;;;1.58;0.82;;;15.40;99.90;;;;;;4830999;29;20109;-85
2022/10/21 10:49:40;;;;;;;1.00;0.70;;;15.50;99.90;;;;;;4845709;29;20049;-87
2022/10/21 10:52:12;;;;;;;0.82;0.82;;;15.40;99.90;;;;;;4830100;29;20061;-85
2022/10/21 10:54:40;;;;;;;0.47;0.47;;;15.40;99.90;;;;;;4829936;29;20045;-90
2022/10/21 10:57:22;;;;;;;0.45;0.40;;;15.50;99.90;;;;;;4830333;29;20080;-86
2022/10/21 11:00:14;;;;;;;0.55;0.55;;;14.50;99.90;;;;;;4845326;29;20057;-86
2022/10/21 11:02:54;;;;;;;1.00;0.50;;;14.70;99.90;;;;;;4845169;29;20172;-87
2022/10/21 11:05:38;;;;;;;0.60;0.60;;;15.60;99.90;;;;;;4830438;29;20409;-87
2022/10/21 11:08:15;;;;;;;0.93;0.60;;;15.50;99.90;;;;;;4845631;29;20056;-87
2022/10/21 11:10:49;;;;;;;0.75;0.70;;;15.60;99.90;;;;;;4830177;29;20133;-87
2022/10/21 11:13:17;;;;;;;1.95;0.32;;;15.60;99.90;;;;;;4845312;29;20136;-87
2022/10/21 11:15:46;;;;;;;1.05;0.82;;;15.60;99.90;;;;;;4829617;29;20057;-88
2022/10/21 11:18:30;;;;;;;0.73;0.73;;;14.80;99.90;;;;;;4830097;29;20053;-87
2022/10/21 11:21:37;;;;;;;0.82;0.60;;;15.80;99.90;;;;;;4844777;29;20056;-89
2022/10/21 11:24:11;;;;;;;1.15;0.80;;;15.20;99.90;;;;;;4845039;29;20048;-90
2022/10/21 11:27:19;;;;;;;0.77;0.77;;;15.90;99.90;;;;;;4829681;29;20053;-91
2022/10/21 11:30:08;;;;;;;1.08;0.85;;;15.90;99.90;;;;;;4816790;29;20110;-92
2022/10/21 11:33:22;;;;;;;0.98;0.75;;;15.90;99.90;;;;;;4837307;29;20049;-89
2022/10/21 11:36:03;;;;;;;0.98;0.80;;;15.80;99.90;;;;;;4825368;29;20053;-89
2022/10/21 11:38:38;;;;;;;1.58;0.52;;;15.80;99.90;;;;;;4829860;29;20053;-88
2022/10/21 11:41:11;;;;;;;1.25;0.40;;;15.80;99.90;;;;;;4829885;29;20104;-87
2022/10/21 11:43:58;;;;;;;1.08;1.00;;;15.80;99.90;;;;;;4829551;29;20071;-90
2022/10/21 11:46:35;;;;;;;0.93;0.80;;;15.80;99.90;;;;;;4829938;29;20053;-87
2022/10/21 11:49:17;;;;;;;;;;;15.80;99.90;;;;;;4830288;29;20294;-87
2022/10/21 11:52:23;;;;;;;1.17;0.55;;;15.80;99.90;;;;;;4829427;29;19924;-88
2022/10/21 11:55:26;;;;;;;0.50;0.45;;;15.80;99.90;;;;;;4829697;29;20064;-88
2022/10/21 11:58:20;;;;;;;1.85;0.93;;;15.80;99.90;;;;;;4829532;29;20049;-88
2022/10/21 12:01:04;;;;;;;0.57;0.30;;;15.50;99.90;;;;;;4844516;29;20144;-88
2022/10/21 12:03:55;;;;;;;1.15;0.30;;;15.80;99.90;;;;;;4829769;29;20132;-87
2022/10/21 12:06:33;;;;;;;0.65;0.60;;;15.80;99.90;;;;;;4829657;29;20053;-88
2022/10/21 12:09:11;;;;;;;1.48;0.70;;;15.80;99.90;;;;;;4844486;29;20057;-88
2022/10/21 12:11:48;;;;;;;1.02;0.93;;;15.80;99.90;;;;;;4829288;29;20061;-88
2022/10/21 12:14:14;;;;;;;0.60;0.60;;;14.90;99.90;;;;;;4829939;29;20512;-88
2022/10/21 12:16:52;;;;;;;1.08;0.73;;;15.80;99.90;;;;;;4829519;29;20069;-91
2022/10/21 12:19:26;;;;;;;0.50;0.50;;;15.80;99.90;;;;;;4844639;29;20053;-87
2022/10/21 12:21:55;;;;;;;1.55;0.40;;;15.90;99.90;;;;;;4829233;29;20121;-88
2022/10/21 12:24:29;;;;;;;0.50;0.50;;;15.80;99.90;;;;;;4829237;29;20049;-88
2022/10/21 12:26:58;;;;;;;2.80;0.77;;;16.50;99.90;;;;;;4829126;29;20057;-88
2022/10/21 12:29:49;;;;;;;0.63;0.40;;;15.90;99.90;;;;;;4829452;29;20200;-88
2022/10/21 12:32:55;;;;;;;0.45;0.43;;;15.90;99.90;;;;;;4829661;29;20057;-88
2022/10/21 12:35:27;;;;;;;0.60;0.60;;;16.00;99.90;;;;;;4826427;29;20069;-87
2022/10/21 12:37:55;;;;;;;9.30;0.63;;;16.00;99.90;;;;;;4828587;29;20413;-88
2022/10/21 12:40:24;;;;;;;0.68;0.40;;;15.90;99.90;;;;;;4829315;29;20441;-88
2022/10/21 12:42:59;;;;;;;0.30;0.30;;;15.90;99.90;;;;;;4828621;29;20559;-88
2022/10/21 12:45:39;;;;;;;0.82;0.60;;;15.90;99.90;;;;;;4846585;29;20061;-88
2022/10/21 12:48:39;;;;;;;0.63;0.60;;;15.70;99.90;;;;;;4834847;29;20046;-87
2022/10/21 12:51:16;;;;;;;0.65;0.60;;;15.90;99.90;;;;;;4850137;29;20085;-88
2022/10/21 12:53:54;;;;;;;;;;;15.20;99.90;;;;;;4832534;29;20489;-88
2022/10/21 12:56:35;;;;;;;0.73;0.40;;;16.60;99.90;;;;;;4817151;29;20006;-88
2022/10/21 12:59:05;;;;;;;0.40;0.40;;;15.70;99.90;;;;;;4831857;29;20058;-88
2022/10/21 13:01:37;;;;;;;0.40;0.40;;;15.80;99.90;;;;;;4817153;29;20046;-88
2022/10/21 13:04:23;;;;;;;1.13;0.50;;;15.80;99.90;;;;;;4816296;29;20132;-88
2022/10/21 13:06:56;;;;;;;0.70;0.52;;;15.80;99.90;;;;;;4815866;29;20066;-88
2022/10/21 13:09:47;;;;;;;0.65;0.65;;;15.80;99.90;;;;;;4831647;29;20050;-88
2022/10/21 13:12:39;;;;;;;0.80;0.80;;;15.20;99.90;;;;;;4817262;29;20053;-88
2022/10/21 13:15:06;;;;;;;0.32;0.32;;;15.80;99.90;;;;;;4810921;29;20065;-88